Eastern Asia — 3FQP2 — position and weather

sailwx.info

Track history (hours):
 
Tides and Currents Weather Stations Pressure Air Temp Water Temp Dewpoint Dewpoint Depression Visibility Wind Speed Wind Dir Waves Ship Positions

Eastern Asia

Last reported at 2016-Jan-18 21:33 UTC. Time now 2016-Feb-07 13:11 UTC.
Position N 46°13' W 125°24'.
Warning: this ship's position is 19 days out of date.

Length 175 m; draft 10.3 m.

Type: Cargo ship. MMSI: 355530000.

Date/timePositionNaut miles runAvg speedWind from/ knotsBaromVisibWave heightAir tempDewpointWater temp
2016-Jan-18 21:33N 46°13' W 125°24'8 7.8
2016-Jan-18 20:33N 46°12' W 125°12'8 8.3
2016-Jan-18 19:34N 46°12' W 125°00'8 8.2
2016-Jan-18 18:34N 46°12' W 124°49'8 8.2
2016-Jan-18 17:34N 46°12' W 124°37'8 8.0
2016-Jan-18 16:33N 46°12' W 124°25'8 8.1
2016-Jan-18 15:34N 46°11' W 124°14'7 6.8
2016-Jan-18 14:34N 46°15' W 124°06'7 7.2
2016-Jan-18 13:34N 46°12' W 123°56'7 7.3
2016-Jan-18 12:34N 46°13' W 123°46'1111.1
2016-Jan-18 11:33N 46°16' W 123°30'1111.1
2016-Jan-18 10:34N 46°09' W 123°19'1312.8
2016-Jan-18 09:33N 46°08' W 123°00'3 3.3
2016-Jan-18 08:33N 46°06' W 122°57'0 0.0
2016-Jan-18 07:30N 46°06' W 122°57'0 0.0
2016-Jan-18 06:33N 46°06' W 122°57'0 0.0
2016-Jan-18 05:24N 46°06' W 122°57'0 0.0
2016-Jan-18 04:30N 46°06' W 122°57'0 0.0
2016-Jan-18 03:33N 46°06' W 122°57'0 0.0
2016-Jan-18 02:30N 46°06' W 122°57'0 0.0
2016-Jan-18 01:27N 46°06' W 122°57'0 0.0
2016-Jan-18 00:24N 46°06' W 122°57'0 0.0
2016-Jan-17 23:33N 46°06' W 122°57'0 0.0
2016-Jan-17 22:33N 46°06' W 122°57'0 0.0
2016-Jan-17 21:33N 46°06' W 122°57'0 0.0
2016-Jan-17 20:30N 46°06' W 122°57'0 0.0
2016-Jan-17 19:30N 46°06' W 122°57'0 0.0
2016-Jan-17 18:33N 46°06' W 122°57'0 0.0
2016-Jan-17 17:33N 46°06' W 122°57'0 0.0
2016-Jan-17 16:33N 46°06' W 122°57'0 0.0
2016-Jan-17 15:33N 46°06' W 122°57'0 0.0
2016-Jan-17 14:33N 46°06' W 122°57'0 0.0
2016-Jan-17 13:33N 46°06' W 122°57'0 0.0
2016-Jan-17 12:30N 46°06' W 122°57'0 0.0
2016-Jan-17 11:33N 46°06' W 122°57'0 0.0
2016-Jan-17 10:33N 46°06' W 122°57'0 0.0
2016-Jan-17 09:30N 46°06' W 122°57'0 0.0
2016-Jan-17 08:33N 46°06' W 122°57'0 0.0
2016-Jan-17 07:30N 46°06' W 122°57'0 0.0
2016-Jan-17 06:33N 46°06' W 122°57'0 0.0
2016-Jan-17 05:33N 46°06' W 122°57'0 0.0
2016-Jan-17 04:27N 46°06' W 122°57'0 0.0
2016-Jan-17 03:30N 46°06' W 122°57'0 0.0
2016-Jan-17 02:30N 46°06' W 122°57'0 0.0
2016-Jan-17 01:30N 46°06' W 122°57'0 0.0
2016-Jan-17 00:33N 46°06' W 122°57'0 0.0
2016-Jan-16 23:30N 46°06' W 122°57'0 0.0
2016-Jan-16 22:33N 46°06' W 122°57'0 0.0
2016-Jan-16 21:33N 46°06' W 122°57'0 0.0
2016-Jan-16 20:24N 46°06' W 122°57'0 0.0
2016-Jan-16 19:30N 46°06' W 122°57'0 0.0
2016-Jan-16 18:30N 46°06' W 122°57'0 0.0
2016-Jan-16 17:33N 46°06' W 122°57'0 0.0
2016-Jan-16 16:33N 46°06' W 122°57'0 0.0
2016-Jan-16 15:33N 46°06' W 122°57'0 0.0
2016-Jan-16 14:33N 46°06' W 122°57'0 0.0
2016-Jan-16 13:33N 46°06' W 122°57'0 0.0
2016-Jan-16 12:30N 46°06' W 122°57'0 0.0
2016-Jan-16 11:33N 46°06' W 122°57'0 0.0
2016-Jan-16 10:30N 46°06' W 122°57'0 0.0
2016-Jan-16 09:33N 46°06' W 122°57'0 0.0
2016-Jan-16 08:18N 46°06' W 122°57'0 0.0
2016-Jan-16 07:24N 46°06' W 122°57'0 0.0
2016-Jan-16 06:33N 46°06' W 122°57'0 0.0
2016-Jan-16 05:33N 46°06' W 122°57'0 0.0
2016-Jan-16 04:33N 46°06' W 122°57'0 0.0
2016-Jan-16 03:33N 46°06' W 122°57'0 0.0
2016-Jan-16 02:33N 46°06' W 122°57'0 0.0
2016-Jan-16 01:33N 46°06' W 122°57'0 0.0
2016-Jan-16 00:33N 46°06' W 122°57'0 0.0
2016-Jan-15 23:33N 46°06' W 122°57'0 0.0
2016-Jan-15 22:30N 46°06' W 122°57'0 0.0
2016-Jan-15 21:21N 46°06' W 122°57'0 0.0
2016-Jan-15 19:30N 46°06' W 122°57'0 0.0
2016-Jan-15 18:27N 46°06' W 122°57'0 0.0
2016-Jan-15 17:30N 46°06' W 122°57'0 0.0
2016-Jan-15 16:33N 46°06' W 122°57'0 0.0
2016-Jan-15 15:30N 46°06' W 122°57'0 0.0
2016-Jan-15 14:33N 46°06' W 122°57'0 0.0
2016-Jan-15 13:21N 46°06' W 122°57'0 0.0
2016-Jan-15 12:24N 46°06' W 122°57'0 0.0
2016-Jan-15 11:33N 46°06' W 122°57'0 0.0
2016-Jan-15 10:33N 46°06' W 122°57'0 0.0
2016-Jan-15 09:30N 46°06' W 122°57'0 0.0
2016-Jan-15 08:27N 46°06' W 122°57'0 0.0
2016-Jan-15 07:33N 46°06' W 122°57'0 0.0
2016-Jan-15 06:33N 46°06' W 122°57'0 0.0
2016-Jan-15 05:30N 46°06' W 122°57'0 0.0
2016-Jan-15 04:33N 46°06' W 122°57'0 0.0
2016-Jan-15 03:27N 46°06' W 122°57'0 0.0
2016-Jan-15 02:33N 46°06' W 122°57'0 0.0
2016-Jan-15 01:33N 46°06' W 122°57'0 0.0
2016-Jan-15 00:30N 46°06' W 122°57'0 0.0
2016-Jan-14 23:27N 46°06' W 122°57'0 0.0
2016-Jan-14 22:33N 46°06' W 122°57'0 0.0
2016-Jan-14 21:33N 46°06' W 122°57'0 0.0
2016-Jan-14 20:30N 46°06' W 122°57'0 0.0
2016-Jan-14 19:30N 46°06' W 122°57'0 0.0
2016-Jan-14 18:24N 46°06' W 122°57'0 0.0
2016-Jan-14 17:33N 46°06' W 122°57'0 0.0
2016-Jan-14 16:30N 46°06' W 122°57'0 0.0
2016-Jan-14 15:33N 46°06' W 122°57'0 0.0
2016-Jan-14 14:33N 46°06' W 122°57'0 0.0
2016-Jan-14 13:30N 46°06' W 122°57'0 0.0
2016-Jan-14 12:24N 46°06' W 122°57'0 0.0
2016-Jan-14 11:27N 46°06' W 122°57'0 0.0
2016-Jan-14 10:33N 46°06' W 122°57'0 0.0
2016-Jan-14 09:33N 46°06' W 122°57'0 0.0
2016-Jan-14 08:30N 46°06' W 122°57'0 0.0
2016-Jan-14 07:33N 46°06' W 122°57'0 0.0
2016-Jan-14 06:33N 46°06' W 122°57'0 0.0
2016-Jan-14 05:27N 46°06' W 122°57'0 0.0
2016-Jan-14 04:33N 46°06' W 122°57'0 0.0
2016-Jan-14 03:33N 46°06' W 122°57'0 0.0
2016-Jan-14 02:30N 46°06' W 122°57'0 0.0
2016-Jan-14 01:33N 46°06' W 122°57'0 0.0
2016-Jan-14 00:33N 46°06' W 122°57'0 0.0
2016-Jan-13 23:33N 46°06' W 122°57'0 0.0
2016-Jan-13 22:30N 46°06' W 122°57'0 0.0
2016-Jan-13 21:33N 46°06' W 122°57'0 0.0
2016-Jan-13 20:33N 46°06' W 122°57'0 0.0
2016-Jan-13 19:33N 46°06' W 122°57'0 0.0
2016-Jan-13 18:27N 46°06' W 122°57'0 0.0
2016-Jan-13 17:33N 46°06' W 122°57'0 0.0
2016-Jan-13 16:33N 46°06' W 122°57'0 0.0
2016-Jan-13 15:33N 46°06' W 122°57'0 0.0
2016-Jan-13 14:27N 46°06' W 122°57'0 0.0
2016-Jan-13 13:33N 46°06' W 122°57'0 0.0
2016-Jan-13 12:30N 46°06' W 122°57'0 0.0
2016-Jan-13 11:33N 46°06' W 122°57'0 0.0
2016-Jan-13 10:33N 46°06' W 122°57'0 0.0
2016-Jan-13 09:33N 46°06' W 122°57'0 0.0
2016-Jan-13 08:30N 46°06' W 122°57'0 0.0
2016-Jan-13 07:30N 46°06' W 122°57'0 0.0
2016-Jan-13 06:30N 46°06' W 122°57'0 0.0
2016-Jan-13 05:30N 46°06' W 122°57'0 0.0
2016-Jan-13 04:33N 46°06' W 122°57'0 0.0
2016-Jan-13 03:33N 46°06' W 122°57'0 0.0
2016-Jan-13 02:33N 46°06' W 122°57'0 0.0
2016-Jan-13 01:30N 46°06' W 122°57'0 0.0
2016-Jan-13 00:30N 46°06' W 122°57'0 0.0
2016-Jan-12 23:30N 46°06' W 122°57'0 0.0
2016-Jan-12 22:33N 46°06' W 122°57'0 0.0
2016-Jan-12 21:33N 46°06' W 122°57'0 0.0
2016-Jan-12 20:33N 46°06' W 122°57'0 0.0
2016-Jan-12 19:33N 46°06' W 122°57'0 0.0
2016-Jan-12 18:33N 46°06' W 122°57'0 0.0
2016-Jan-12 17:33N 46°06' W 122°57'0 0.0
2016-Jan-12 16:33N 46°06' W 122°57'0 0.0
2016-Jan-12 15:30N 46°06' W 122°57'0 0.0
2016-Jan-12 14:30N 46°06' W 122°57'2 2.5
2016-Jan-12 13:32N 46°07' W 122°59'0 0.0
2016-Jan-12 12:32N 46°07' W 122°59'0 0.0
2016-Jan-12 11:26N 46°07' W 122°59'0 0.0
2016-Jan-12 10:32N 46°07' W 122°59'0 0.0
2016-Jan-12 09:29N 46°07' W 122°59'0 0.0
2016-Jan-12 08:32N 46°07' W 122°59'0 0.0
2016-Jan-12 07:32N 46°07' W 122°59'0 0.0
2016-Jan-12 06:32N 46°07' W 122°59'0 0.0
2016-Jan-12 05:32N 46°07' W 122°59'0 0.0
2016-Jan-12 04:23N 46°07' W 122°59'0 0.0
2016-Jan-12 03:32N 46°07' W 122°59'0 0.0
2016-Jan-12 02:29N 46°07' W 122°59'0 0.0
2016-Jan-12 01:26N 46°07' W 122°59'0 0.0
2016-Jan-12 00:32N 46°08' W 122°59'0 0.0
2016-Jan-11 23:32N 46°08' W 122°59'0 0.0
2016-Jan-11 22:29N 46°08' W 122°59'0 0.0
2016-Jan-11 21:32N 46°07' W 122°59'0 0.0
2016-Jan-11 20:29N 46°07' W 122°59'0 0.0
2016-Jan-11 19:32N 46°07' W 122°59'0 0.0
2016-Jan-11 18:32N 46°07' W 122°59'0 0.0
2016-Jan-11 17:26N 46°07' W 122°59'0 0.0
2016-Jan-11 16:23N 46°07' W 122°59'0 0.0
2016-Jan-11 15:32N 46°07' W 122°59'0 0.0
2016-Jan-11 14:32N 46°07' W 122°59'0 0.0
2016-Jan-11 13:32N 46°07' W 122°59'0 0.0
2016-Jan-11 12:29N 46°07' W 122°59'0 0.0
2016-Jan-11 11:32N 46°07' W 122°59'0 0.0
2016-Jan-11 10:32N 46°07' W 122°59'0 0.0
2016-Jan-11 09:32N 46°07' W 122°59'0 0.0
2016-Jan-11 08:32N 46°07' W 122°59'0 0.0
2016-Jan-11 07:32N 46°07' W 122°59'0 0.0
2016-Jan-11 06:32N 46°07' W 122°59'0 0.0
2016-Jan-11 05:26N 46°07' W 122°59'0 0.0
2016-Jan-11 04:32N 46°07' W 122°59'0 0.0
2016-Jan-11 03:29N 46°07' W 122°59'0 0.0
2016-Jan-11 02:23N 46°07' W 122°59'0 0.0
2016-Jan-11 01:32N 46°07' W 122°59'0 0.1
2016-Jan-11 00:29N 46°07' W 122°59'0 0.1
2016-Jan-10 23:29N 46°07' W 122°59'0 0.0
2016-Jan-10 22:26N 46°07' W 122°59'0 0.1
2016-Jan-10 21:29N 46°07' W 122°59'0 0.1
2016-Jan-10 20:29N 46°07' W 122°59'0 0.0
2016-Jan-10 19:29N 46°07' W 122°59'0 0.0
2016-Jan-10 18:26N 46°07' W 122°59'0 0.0
2016-Jan-10 17:32N 46°07' W 122°59'0 0.0
2016-Jan-10 16:32N 46°07' W 122°59'0 0.0
2016-Jan-10 15:32N 46°07' W 122°59'0 0.0
2016-Jan-10 14:26N 46°07' W 122°59'0 0.0
2016-Jan-10 13:32N 46°07' W 122°59'0 0.0
2016-Jan-10 12:20N 46°07' W 122°59'0 0.1
2016-Jan-10 11:32N 46°07' W 122°59'0 0.0
2016-Jan-10 10:32N 46°07' W 122°59'0 0.0
2016-Jan-10 09:32N 46°07' W 122°59'0 0.0
2016-Jan-10 08:32N 46°07' W 122°59'0 0.0
2016-Jan-10 07:29N 46°07' W 122°59'0 0.0
2016-Jan-10 06:29N 46°07' W 122°59'0 0.0
2016-Jan-10 05:32N 46°07' W 122°59'0 0.0
2016-Jan-10 04:32N 46°07' W 122°59'0 0.0
2016-Jan-10 03:29N 46°07' W 122°59'0 0.0
2016-Jan-10 02:26N 46°07' W 122°59'0 0.0
2016-Jan-10 01:32N 46°07' W 122°59'0 0.0
2016-Jan-10 00:26N 46°07' W 122°59'0 0.0
2016-Jan-09 23:32N 46°07' W 122°59'0 0.1
2016-Jan-09 22:17N 46°07' W 122°59'0 0.1
2016-Jan-09 21:29N 46°07' W 122°59'0 0.0
2016-Jan-09 20:23N 46°07' W 122°59'0 0.0
2016-Jan-09 19:26N 46°07' W 122°59'0 0.0
2016-Jan-09 18:32N 46°07' W 122°59'0 0.0
2016-Jan-09 17:32N 46°07' W 122°59'0 0.0
2016-Jan-09 16:29N 46°07' W 122°59'0 0.0
2016-Jan-09 15:32N 46°07' W 122°59'0 0.0
2016-Jan-09 14:32N 46°07' W 122°59'0 0.0
2016-Jan-09 13:32N 46°07' W 122°59'0 0.0
2016-Jan-09 12:29N 46°07' W 122°59'0 0.0
2016-Jan-09 11:32N 46°07' W 122°59'0 0.0
2016-Jan-09 10:32N 46°07' W 122°59'0 0.0
2016-Jan-09 09:26N 46°07' W 122°59'0 0.0
2016-Jan-09 08:32N 46°07' W 122°59'0 0.0
2016-Jan-09 07:32N 46°07' W 122°59'0 0.0
2016-Jan-09 06:32N 46°07' W 122°59'0 0.0
2016-Jan-09 05:26N 46°07' W 122°59'0 0.0
2016-Jan-09 04:29N 46°07' W 122°59'0 0.0
2016-Jan-09 03:29N 46°07' W 122°59'0 0.0
2016-Jan-09 02:29N 46°07' W 122°59'0 0.0
2016-Jan-09 01:32N 46°07' W 122°59'0 0.0
2016-Jan-09 00:32N 46°07' W 122°59'0 0.0
2016-Jan-08 23:32N 46°07' W 122°59'0 0.1
2016-Jan-08 22:29N 46°07' W 122°59'  
Track history (hours):
 
Tides and Currents Weather Stations Pressure Air Temp Water Temp Dewpoint Dewpoint Depression Visibility Wind Speed Wind Dir Waves Ship Positions

Eastern Asia

Last reported at 2016-Jan-18 21:33 UTC. Time now 2016-Feb-07 13:11 UTC.
Position N 46°13' W 125°24'.
Warning: this ship's position is 19 days out of date.

Length 175 m; draft 10.3 m.

Type: Cargo ship. MMSI: 355530000.

Date/timePositionNaut miles runAvg speedWind from/ knotsBaromVisibWave heightAir tempDewpointWater temp
2016-Jan-18 21:33N 46°13' W 125°24'8 7.8
2016-Jan-18 20:33N 46°12' W 125°12'8 8.3
2016-Jan-18 19:34N 46°12' W 125°00'8 8.2
2016-Jan-18 18:34N 46°12' W 124°49'8 8.2
2016-Jan-18 17:34N 46°12' W 124°37'8 8.0
2016-Jan-18 16:33N 46°12' W 124°25'8 8.1
2016-Jan-18 15:34N 46°11' W 124°14'7 6.8
2016-Jan-18 14:34N 46°15' W 124°06'7 7.2
2016-Jan-18 13:34N 46°12' W 123°56'7 7.3
2016-Jan-18 12:34N 46°13' W 123°46'1111.1
2016-Jan-18 11:33N 46°16' W 123°30'1111.1
2016-Jan-18 10:34N 46°09' W 123°19'1312.8
2016-Jan-18 09:33N 46°08' W 123°00'3 3.3
2016-Jan-18 08:33N 46°06' W 122°57'0 0.0
2016-Jan-18 07:30N 46°06' W 122°57'0 0.0
2016-Jan-18 06:33N 46°06' W 122°57'0 0.0
2016-Jan-18 05:24N 46°06' W 122°57'0 0.0
2016-Jan-18 04:30N 46°06' W 122°57'0 0.0
2016-Jan-18 03:33N 46°06' W 122°57'0 0.0
2016-Jan-18 02:30N 46°06' W 122°57'0 0.0
2016-Jan-18 01:27N 46°06' W 122°57'0 0.0
2016-Jan-18 00:24N 46°06' W 122°57'0 0.0
2016-Jan-17 23:33N 46°06' W 122°57'0 0.0
2016-Jan-17 22:33N 46°06' W 122°57'0 0.0
2016-Jan-17 21:33N 46°06' W 122°57'0 0.0
2016-Jan-17 20:30N 46°06' W 122°57'0 0.0
2016-Jan-17 19:30N 46°06' W 122°57'0 0.0
2016-Jan-17 18:33N 46°06' W 122°57'0 0.0
2016-Jan-17 17:33N 46°06' W 122°57'0 0.0
2016-Jan-17 16:33N 46°06' W 122°57'0 0.0
2016-Jan-17 15:33N 46°06' W 122°57'0 0.0
2016-Jan-17 14:33N 46°06' W 122°57'0 0.0
2016-Jan-17 13:33N 46°06' W 122°57'0 0.0
2016-Jan-17 12:30N 46°06' W 122°57'0 0.0
2016-Jan-17 11:33N 46°06' W 122°57'0 0.0
2016-Jan-17 10:33N 46°06' W 122°57'0 0.0
2016-Jan-17 09:30N 46°06' W 122°57'0 0.0
2016-Jan-17 08:33N 46°06' W 122°57'0 0.0
2016-Jan-17 07:30N 46°06' W 122°57'0 0.0
2016-Jan-17 06:33N 46°06' W 122°57'0 0.0
2016-Jan-17 05:33N 46°06' W 122°57'0 0.0
2016-Jan-17 04:27N 46°06' W 122°57'0 0.0
2016-Jan-17 03:30N 46°06' W 122°57'0 0.0
2016-Jan-17 02:30N 46°06' W 122°57'0 0.0
2016-Jan-17 01:30N 46°06' W 122°57'0 0.0
2016-Jan-17 00:33N 46°06' W 122°57'0 0.0
2016-Jan-16 23:30N 46°06' W 122°57'0 0.0
2016-Jan-16 22:33N 46°06' W 122°57'0 0.0
2016-Jan-16 21:33N 46°06' W 122°57'0 0.0
2016-Jan-16 20:24N 46°06' W 122°57'0 0.0
2016-Jan-16 19:30N 46°06' W 122°57'0 0.0
2016-Jan-16 18:30N 46°06' W 122°57'0 0.0
2016-Jan-16 17:33N 46°06' W 122°57'0 0.0
2016-Jan-16 16:33N 46°06' W 122°57'0 0.0
2016-Jan-16 15:33N 46°06' W 122°57'0 0.0
2016-Jan-16 14:33N 46°06' W 122°57'0 0.0
2016-Jan-16 13:33N 46°06' W 122°57'0 0.0
2016-Jan-16 12:30N 46°06' W 122°57'0 0.0
2016-Jan-16 11:33N 46°06' W 122°57'0 0.0
2016-Jan-16 10:30N 46°06' W 122°57'0 0.0
2016-Jan-16 09:33N 46°06' W 122°57'0 0.0
2016-Jan-16 08:18N 46°06' W 122°57'0 0.0
2016-Jan-16 07:24N 46°06' W 122°57'0 0.0
2016-Jan-16 06:33N 46°06' W 122°57'0 0.0
2016-Jan-16 05:33N 46°06' W 122°57'0 0.0
2016-Jan-16 04:33N 46°06' W 122°57'0 0.0
2016-Jan-16 03:33N 46°06' W 122°57'0 0.0
2016-Jan-16 02:33N 46°06' W 122°57'0 0.0
2016-Jan-16 01:33N 46°06' W 122°57'0 0.0
2016-Jan-16 00:33N 46°06' W 122°57'0 0.0
2016-Jan-15 23:33N 46°06' W 122°57'0 0.0
2016-Jan-15 22:30N 46°06' W 122°57'0 0.0
2016-Jan-15 21:21N 46°06' W 122°57'0 0.0
2016-Jan-15 19:30N 46°06' W 122°57'0 0.0
2016-Jan-15 18:27N 46°06' W 122°57'0 0.0
2016-Jan-15 17:30N 46°06' W 122°57'0 0.0
2016-Jan-15 16:33N 46°06' W 122°57'0 0.0
2016-Jan-15 15:30N 46°06' W 122°57'0 0.0
2016-Jan-15 14:33N 46°06' W 122°57'0 0.0
2016-Jan-15 13:21N 46°06' W 122°57'0 0.0
2016-Jan-15 12:24N 46°06' W 122°57'0 0.0
2016-Jan-15 11:33N 46°06' W 122°57'0 0.0
2016-Jan-15 10:33N 46°06' W 122°57'0 0.0
2016-Jan-15 09:30N 46°06' W 122°57'0 0.0
2016-Jan-15 08:27N 46°06' W 122°57'0 0.0
2016-Jan-15 07:33N 46°06' W 122°57'0 0.0
2016-Jan-15 06:33N 46°06' W 122°57'0 0.0
2016-Jan-15 05:30N 46°06' W 122°57'0 0.0
2016-Jan-15 04:33N 46°06' W 122°57'0 0.0
2016-Jan-15 03:27N 46°06' W 122°57'0 0.0
2016-Jan-15 02:33N 46°06' W 122°57'0 0.0
2016-Jan-15 01:33N 46°06' W 122°57'0 0.0
2016-Jan-15 00:30N 46°06' W 122°57'0 0.0
2016-Jan-14 23:27N 46°06' W 122°57'0 0.0
2016-Jan-14 22:33N 46°06' W 122°57'0 0.0
2016-Jan-14 21:33N 46°06' W 122°57'0 0.0
2016-Jan-14 20:30N 46°06' W 122°57'0 0.0
2016-Jan-14 19:30N 46°06' W 122°57'0 0.0
2016-Jan-14 18:24N 46°06' W 122°57'0 0.0
2016-Jan-14 17:33N 46°06' W 122°57'0 0.0
2016-Jan-14 16:30N 46°06' W 122°57'0 0.0
2016-Jan-14 15:33N 46°06' W 122°57'0 0.0
2016-Jan-14 14:33N 46°06' W 122°57'0 0.0
2016-Jan-14 13:30N 46°06' W 122°57'0 0.0
2016-Jan-14 12:24N 46°06' W 122°57'0 0.0
2016-Jan-14 11:27N 46°06' W 122°57'0 0.0
2016-Jan-14 10:33N 46°06' W 122°57'0 0.0
2016-Jan-14 09:33N 46°06' W 122°57'0 0.0
2016-Jan-14 08:30N 46°06' W 122°57'0 0.0
2016-Jan-14 07:33N 46°06' W 122°57'0 0.0
2016-Jan-14 06:33N 46°06' W 122°57'0 0.0
2016-Jan-14 05:27N 46°06' W 122°57'0 0.0
2016-Jan-14 04:33N 46°06' W 122°57'0 0.0
2016-Jan-14 03:33N 46°06' W 122°57'0 0.0
2016-Jan-14 02:30N 46°06' W 122°57'0 0.0
2016-Jan-14 01:33N 46°06' W 122°57'0 0.0
2016-Jan-14 00:33N 46°06' W 122°57'0 0.0
2016-Jan-13 23:33N 46°06' W 122°57'0 0.0
2016-Jan-13 22:30N 46°06' W 122°57'0 0.0
2016-Jan-13 21:33N 46°06' W 122°57'0 0.0
2016-Jan-13 20:33N 46°06' W 122°57'0 0.0
2016-Jan-13 19:33N 46°06' W 122°57'0 0.0
2016-Jan-13 18:27N 46°06' W 122°57'0 0.0
2016-Jan-13 17:33N 46°06' W 122°57'0 0.0
2016-Jan-13 16:33N 46°06' W 122°57'0 0.0
2016-Jan-13 15:33N 46°06' W 122°57'0 0.0
2016-Jan-13 14:27N 46°06' W 122°57'0 0.0
2016-Jan-13 13:33N 46°06' W 122°57'0 0.0
2016-Jan-13 12:30N 46°06' W 122°57'0 0.0
2016-Jan-13 11:33N 46°06' W 122°57'0 0.0
2016-Jan-13 10:33N 46°06' W 122°57'0 0.0
2016-Jan-13 09:33N 46°06' W 122°57'0 0.0
2016-Jan-13 08:30N 46°06' W 122°57'0 0.0
2016-Jan-13 07:30N 46°06' W 122°57'0 0.0
2016-Jan-13 06:30N 46°06' W 122°57'0 0.0
2016-Jan-13 05:30N 46°06' W 122°57'0 0.0
2016-Jan-13 04:33N 46°06' W 122°57'0 0.0
2016-Jan-13 03:33N 46°06' W 122°57'0 0.0
2016-Jan-13 02:33N 46°06' W 122°57'0 0.0
2016-Jan-13 01:30N 46°06' W 122°57'0 0.0
2016-Jan-13 00:30N 46°06' W 122°57'0 0.0
2016-Jan-12 23:30N 46°06' W 122°57'0 0.0
2016-Jan-12 22:33N 46°06' W 122°57'0 0.0
2016-Jan-12 21:33N 46°06' W 122°57'0 0.0
2016-Jan-12 20:33N 46°06' W 122°57'0 0.0
2016-Jan-12 19:33N 46°06' W 122°57'0 0.0
2016-Jan-12 18:33N 46°06' W 122°57'0 0.0
2016-Jan-12 17:33N 46°06' W 122°57'0 0.0
2016-Jan-12 16:33N 46°06' W 122°57'0 0.0
2016-Jan-12 15:30N 46°06' W 122°57'0 0.0
2016-Jan-12 14:30N 46°06' W 122°57'2 2.5
2016-Jan-12 13:32N 46°07' W 122°59'0 0.0
2016-Jan-12 12:32N 46°07' W 122°59'0 0.0
2016-Jan-12 11:26N 46°07' W 122°59'0 0.0
2016-Jan-12 10:32N 46°07' W 122°59'0 0.0
2016-Jan-12 09:29N 46°07' W 122°59'0 0.0
2016-Jan-12 08:32N 46°07' W 122°59'0 0.0
2016-Jan-12 07:32N 46°07' W 122°59'0 0.0
2016-Jan-12 06:32N 46°07' W 122°59'0 0.0
2016-Jan-12 05:32N 46°07' W 122°59'0 0.0
2016-Jan-12 04:23N 46°07' W 122°59'0 0.0
2016-Jan-12 03:32N 46°07' W 122°59'0 0.0
2016-Jan-12 02:29N 46°07' W 122°59'0 0.0
2016-Jan-12 01:26N 46°07' W 122°59'0 0.0
2016-Jan-12 00:32N 46°08' W 122°59'0 0.0
2016-Jan-11 23:32N 46°08' W 122°59'0 0.0
2016-Jan-11 22:29N 46°08' W 122°59'0 0.0
2016-Jan-11 21:32N 46°07' W 122°59'0 0.0
2016-Jan-11 20:29N 46°07' W 122°59'0 0.0
2016-Jan-11 19:32N 46°07' W 122°59'0 0.0
2016-Jan-11 18:32N 46°07' W 122°59'0 0.0
2016-Jan-11 17:26N 46°07' W 122°59'0 0.0
2016-Jan-11 16:23N 46°07' W 122°59'0 0.0
2016-Jan-11 15:32N 46°07' W 122°59'0 0.0
2016-Jan-11 14:32N 46°07' W 122°59'0 0.0
2016-Jan-11 13:32N 46°07' W 122°59'0 0.0
2016-Jan-11 12:29N 46°07' W 122°59'0 0.0
2016-Jan-11 11:32N 46°07' W 122°59'0 0.0
2016-Jan-11 10:32N 46°07' W 122°59'0 0.0
2016-Jan-11 09:32N 46°07' W 122°59'0 0.0
2016-Jan-11 08:32N 46°07' W 122°59'0 0.0
2016-Jan-11 07:32N 46°07' W 122°59'0 0.0
2016-Jan-11 06:32N 46°07' W 122°59'0 0.0
2016-Jan-11 05:26N 46°07' W 122°59'0 0.0
2016-Jan-11 04:32N 46°07' W 122°59'0 0.0
2016-Jan-11 03:29N 46°07' W 122°59'0 0.0
2016-Jan-11 02:23N 46°07' W 122°59'0 0.0
2016-Jan-11 01:32N 46°07' W 122°59'0 0.1
2016-Jan-11 00:29N 46°07' W 122°59'0 0.1
2016-Jan-10 23:29N 46°07' W 122°59'0 0.0
2016-Jan-10 22:26N 46°07' W 122°59'0 0.1
2016-Jan-10 21:29N 46°07' W 122°59'0 0.1
2016-Jan-10 20:29N 46°07' W 122°59'0 0.0
2016-Jan-10 19:29N 46°07' W 122°59'0 0.0
2016-Jan-10 18:26N 46°07' W 122°59'0 0.0
2016-Jan-10 17:32N 46°07' W 122°59'0 0.0
2016-Jan-10 16:32N 46°07' W 122°59'0 0.0
2016-Jan-10 15:32N 46°07' W 122°59'0 0.0
2016-Jan-10 14:26N 46°07' W 122°59'0 0.0
2016-Jan-10 13:32N 46°07' W 122°59'0 0.0
2016-Jan-10 12:20N 46°07' W 122°59'0 0.1
2016-Jan-10 11:32N 46°07' W 122°59'0 0.0
2016-Jan-10 10:32N 46°07' W 122°59'0 0.0
2016-Jan-10 09:32N 46°07' W 122°59'0 0.0
2016-Jan-10 08:32N 46°07' W 122°59'0 0.0
2016-Jan-10 07:29N 46°07' W 122°59'0 0.0
2016-Jan-10 06:29N 46°07' W 122°59'0 0.0
2016-Jan-10 05:32N 46°07' W 122°59'0 0.0
2016-Jan-10 04:32N 46°07' W 122°59'0 0.0
2016-Jan-10 03:29N 46°07' W 122°59'0 0.0
2016-Jan-10 02:26N 46°07' W 122°59'0 0.0
2016-Jan-10 01:32N 46°07' W 122°59'0 0.0
2016-Jan-10 00:26N 46°07' W 122°59'0 0.0
2016-Jan-09 23:32N 46°07' W 122°59'0 0.1
2016-Jan-09 22:17N 46°07' W 122°59'0 0.1
2016-Jan-09 21:29N 46°07' W 122°59'0 0.0
2016-Jan-09 20:23N 46°07' W 122°59'0 0.0
2016-Jan-09 19:26N 46°07' W 122°59'0 0.0
2016-Jan-09 18:32N 46°07' W 122°59'0 0.0
2016-Jan-09 17:32N 46°07' W 122°59'0 0.0
2016-Jan-09 16:29N 46°07' W 122°59'0 0.0
2016-Jan-09 15:32N 46°07' W 122°59'0 0.0
2016-Jan-09 14:32N 46°07' W 122°59'0 0.0
2016-Jan-09 13:32N 46°07' W 122°59'0 0.0
2016-Jan-09 12:29N 46°07' W 122°59'0 0.0
2016-Jan-09 11:32N 46°07' W 122°59'0 0.0
2016-Jan-09 10:32N 46°07' W 122°59'0 0.0
2016-Jan-09 09:26N 46°07' W 122°59'0 0.0
2016-Jan-09 08:32N 46°07' W 122°59'0 0.0
2016-Jan-09 07:32N 46°07' W 122°59'0 0.0
2016-Jan-09 06:32N 46°07' W 122°59'0 0.0
2016-Jan-09 05:26N 46°07' W 122°59'0 0.0
2016-Jan-09 04:29N 46°07' W 122°59'0 0.0
2016-Jan-09 03:29N 46°07' W 122°59'0 0.0
2016-Jan-09 02:29N 46°07' W 122°59'0 0.0
2016-Jan-09 01:32N 46°07' W 122°59'0 0.0
2016-Jan-09 00:32N 46°07' W 122°59'0 0.0
2016-Jan-08 23:32N 46°07' W 122°59'0 0.1
2016-Jan-08 22:29N 46°07' W 122°59'  

Dump ship's entire track history